Wetterdaten: Woche 14.08.17 - 20.08.17 (KW33)
Datum Zeit Temp. I. Temp. A. Feuchte I. Feuchte A. Luftdruck Regen Wind Richtung Sonnenschein UV Solar Taupunkt Windchill Windben
14.08.2017 00:00 25,5 C 12,7 C 56 % 91 % 1021,7 hPa 0,0 l/m 0,0 km/h (0 Bft) N 0,00 h 0,0 UV-I 0 W/m 11,3 C 12,7 C 0,0 km/h (0 Bft)
14.08.2017 01:00 25,2 C 11,8 C 56 % 93 % 1021,8 hPa 0,0 l/m 0,0 km/h (0 Bft) N 0,00 h 0,0 UV-I 0 W/m 10,7 C 11,8 C 0,0 km/h (0 Bft)
14.08.2017 02:00 25,1 C 11,5 C 56 % 94 % 1021,8 hPa 0,0 l/m 0,0 km/h (0 Bft) N 0,00 h 0,0 UV-I 0 W/m 10,6 C 11,5 C 0,0 km/h (0 Bft)
14.08.2017 03:00 25,1 C 11,1 C 56 % 94 % 1021,9 hPa 0,0 l/m 0,0 km/h (0 Bft) N 0,00 h 0,0 UV-I 0 W/m 10,1 C 11,1 C 0,0 km/h (0 Bft)
14.08.2017 04:00 25,3 C 10,7 C 56 % 94 % 1021,5 hPa 0,0 l/m 0,0 km/h (0 Bft) N 0,00 h 0,0 UV-I 0 W/m 9,8 C 10,7 C 0,0 km/h (0 Bft)
14.08.2017 05:00 25,2 C 10,3 C 56 % 95 % 1021,5 hPa 0,0 l/m 0,0 km/h (0 Bft) N 0,00 h 0,0 UV-I 0 W/m 9,5 C 10,3 C 0,0 km/h (0 Bft)
14.08.2017 06:00 25,2 C 10,0 C 56 % 95 % 1021,6 hPa 0,0 l/m 0,0 km/h (0 Bft) N 0,00 h 0,0 UV-I 15 W/m 9,2 C 10,0 C 0,0 km/h (0 Bft)
14.08.2017 07:00 25,4 C 12,0 C 55 % 96 % 1021,9 hPa 0,0 l/m 0,7 km/h (0 Bft) N 0,58 h 0,6 UV-I 131 W/m 11,3 C 11,9 C 1,1 km/h (0 Bft)
14.08.2017 08:00 25,5 C 16,5 C 55 % 86 % 1021,8 hPa 0,0 l/m 4,8 km/h (1 Bft) N 1,00 h 1,2 UV-I 364 W/m 14,1 C 16,3 C 2,6 km/h (1 Bft)
14.08.2017 09:00 25,4 C 18,2 C 55 % 79 % 1021,9 hPa 0,0 l/m 5,1 km/h (1 Bft) N 1,00 h 2,1 UV-I 516 W/m 14,5 C 17,9 C 4,1 km/h (1 Bft)
14.08.2017 10:00 25,3 C 19,5 C 55 % 74 % 1022,1 hPa 0,0 l/m 8,0 km/h (2 Bft) N 1,00 h 3,5 UV-I 667 W/m 14,6 C 18,8 C 0,0 km/h (0 Bft)
14.08.2017 11:00 24,9 C 21,1 C 55 % 69 % 1021,9 hPa 0,0 l/m 5,3 km/h (1 Bft) N 1,00 h 4,8 UV-I 747 W/m 15,2 C 20,8 C 4,9 km/h (1 Bft)
14.08.2017 12:00 25,4 C 22,2 C 55 % 62 % 1021,5 hPa 0,0 l/m 4,9 km/h (1 Bft) O-NO 0,98 h 5,6 UV-I 752 W/m 14,7 C 22,0 C 6,7 km/h (2 Bft)
14.08.2017 13:00 25,6 C 23,6 C 53 % 57 % 1021,2 hPa 0,0 l/m 4,5 km/h (1 Bft) N 1,00 h 5,8 UV-I 783 W/m 14,5 C 23,4 C 7,2 km/h (2 Bft)
14.08.2017 14:00 25,6 C 23,5 C 51 % 55 % 1020,8 hPa 0,0 l/m 2,7 km/h (1 Bft) O 0,72 h 4,5 UV-I 554 W/m 14,0 C 23,5 C 5,0 km/h (1 Bft)
14.08.2017 15:00 25,6 C 23,7 C 49 % 52 % 1020,3 hPa 0,0 l/m 2,1 km/h (1 Bft) SO 0,90 h 3,9 UV-I 558 W/m 13,3 C 23,7 C 3,3 km/h (1 Bft)
14.08.2017 16:00 25,8 C 24,2 C 48 % 50 % 1019,9 hPa 0,0 l/m 0,6 km/h (0 Bft) N 1,00 h 2,8 UV-I 537 W/m 12,9 C 24,2 C 0,1 km/h (0 Bft)
14.08.2017 17:00 25,8 C 24,1 C 47 % 47 % 1019,5 hPa 0,0 l/m 1,0 km/h (0 Bft) N 0,83 h 1,6 UV-I 345 W/m 12,1 C 24,1 C 1,5 km/h (1 Bft)
14.08.2017 18:00 25,8 C 23,6 C 48 % 47 % 1019,3 hPa 0,0 l/m 1,4 km/h (1 Bft) O-SO 0,32 h 1,0 UV-I 108 W/m 11,7 C 23,6 C 3,0 km/h (1 Bft)
14.08.2017 19:00 25,8 C 22,0 C 49 % 55 % 1019,2 hPa 0,0 l/m 0,9 km/h (0 Bft) N 0,00 h 0,0 UV-I 23 W/m 12,5 C 22,0 C 0,9 km/h (0 Bft)
14.08.2017 20:00 25,5 C 20,0 C 49 % 64 % 1019,3 hPa 0,0 l/m 3,2 km/h (1 Bft) N 0,00 h 0,0 UV-I 10 W/m 12,8 C 20,0 C 0,0 km/h (0 Bft)
14.08.2017 21:00 25,4 C 18,4 C 51 % 68 % 1019,7 hPa 0,0 l/m 3,2 km/h (1 Bft) N 0,00 h 0,0 UV-I 0 W/m 12,5 C 18,4 C 0,0 km/h (0 Bft)
14.08.2017 22:00 25,5 C 17,9 C 51 % 70 % 1019,9 hPa 0,0 l/m 3,2 km/h (1 Bft) N 0,00 h 0,0 UV-I 0 W/m 12,2 C 17,9 C 0,3 km/h (0 Bft)
14.08.2017 23:00 25,7 C 17,7 C 52 % 70 % 1019,9 hPa 0,0 l/m 1,8 km/h (1 Bft) NO 0,00 h 0,0 UV-I 0 W/m 12,2 C 17,6 C 2,8 km/h (1 Bft)
15.08.2017 00:00 25,9 C 17,3 C 52 % 71 % 1020,0 hPa 0,0 l/m 4,0 km/h (1 Bft) N 0,00 h 0,0 UV-I 0 W/m 12,1 C 17,3 C 0,4 km/h (0 Bft)
15.08.2017 01:00 25,6 C 16,9 C 52 % 72 % 1019,6 hPa 0,0 l/m 2,2 km/h (1 Bft) O-NO 0,00 h 0,0 UV-I 0 W/m 11,9 C 16,9 C 3,2 km/h (1 Bft)
15.08.2017 02:00 25,5 C 16,2 C 53 % 75 % 1019,4 hPa 0,0 l/m 0,0 km/h (0 Bft) NO 0,00 h 0,0 UV-I 0 W/m 11,8 C 16,2 C 0,1 km/h (0 Bft)
15.08.2017 03:00 25,2 C 14,8 C 54 % 80 % 1019,1 hPa 0,0 l/m 0,0 km/h (0 Bft) N 0,00 h 0,0 UV-I 0 W/m 11,3 C 14,8 C 0,0 km/h (0 Bft)
15.08.2017 04:00 25,4 C 13,8 C 54 % 83 % 1019,0 hPa 0,0 l/m 0,1 km/h (0 Bft) O-NO 0,00 h 0,0 UV-I 0 W/m 11,0 C 13,8 C 0,1 km/h (0 Bft)
15.08.2017 05:00 25,1 C 12,8 C 54 % 87 % 1018,9 hPa 0,0 l/m 0,0 km/h (0 Bft) N 0,00 h 0,0 UV-I 0 W/m 10,6 C 12,8 C 0,0 km/h (0 Bft)
15.08.2017 06:00 25,1 C 12,2 C 55 % 89 % 1019,1 hPa 0,0 l/m 0,0 km/h (0 Bft) N 0,00 h 0,0 UV-I 12 W/m 10,5 C 12,2 C 0,0 km/h (0 Bft)
15.08.2017 07:00 25,4 C 13,6 C 54 % 89 % 1019,2 hPa 0,0 l/m 0,0 km/h (0 Bft) N 0,48 h 0,6 UV-I 129 W/m 11,8 C 13,6 C 0,0 km/h (0 Bft)
15.08.2017 08:00 25,3 C 18,2 C 54 % 75 % 1019,0 hPa 0,0 l/m 0,0 km/h (0 Bft) O-NO 0,97 h 1,2 UV-I 351 W/m 13,6 C 18,2 C 0,1 km/h (0 Bft)
15.08.2017 09:00 25,3 C 20,8 C 54 % 66 % 1018,5 hPa 0,0 l/m 0,6 km/h (0 Bft) O 1,00 h 2,1 UV-I 495 W/m 14,2 C 20,8 C 1,8 km/h (1 Bft)
15.08.2017 10:00 25,1 C 23,3 C 53 % 60 % 1018,3 hPa 0,0 l/m 2,2 km/h (1 Bft) O 1,00 h 3,5 UV-I 639 W/m 15,0 C 23,3 C 5,0 km/h (1 Bft)
15.08.2017 11:00 25,4 C 25,4 C 52 % 55 % 1017,9 hPa 0,0 l/m 1,7 km/h (1 Bft) S-SO 1,00 h 4,8 UV-I 752 W/m 15,6 C 25,4 C 4,1 km/h (1 Bft)
15.08.2017 12:00 25,8 C 26,7 C 51 % 51 % 1017,8 hPa 0,0 l/m 5,1 km/h (1 Bft) S-SO 1,00 h 5,3 UV-I 818 W/m 15,7 C 26,5 C 9,1 km/h (2 Bft)
15.08.2017 13:00 26,2 C 27,3 C 51 % 50 % 1017,3 hPa 0,0 l/m 7,7 km/h (2 Bft) S-SO 1,00 h 5,5 UV-I 740 W/m 16,1 C 27,0 C 12,3 km/h (3 Bft)
15.08.2017 14:00 27,2 C 27,7 C 51 % 49 % 1016,7 hPa 0,0 l/m 6,9 km/h (2 Bft) S-SO 0,95 h 4,8 UV-I 688 W/m 16,1 C 27,4 C 9,7 km/h (2 Bft)
15.08.2017 15:00 27,3 C 27,7 C 50 % 49 % 1016,5 hPa 0,0 l/m 3,2 km/h (1 Bft) S 0,95 h 3,2 UV-I 384 W/m 16,0 C 27,7 C 5,6 km/h (1 Bft)
15.08.2017 16:00 27,4 C 27,4 C 49 % 50 % 1016,2 hPa 0,0 l/m 1,5 km/h (1 Bft) N 0,77 h 2,4 UV-I 428 W/m 16,2 C 27,4 C 2,1 km/h (1 Bft)
15.08.2017 17:00 27,2 C 27,0 C 50 % 52 % 1016,1 hPa 0,0 l/m 3,9 km/h (1 Bft) SO 0,42 h 1,0 UV-I 230 W/m 16,3 C 26,9 C 5,9 km/h (2 Bft)
15.08.2017 18:00 26,6 C 24,5 C 53 % 63 % 1016,3 hPa 0,0 l/m 5,0 km/h (1 Bft) S-SO 0,00 h 0,5 UV-I 73 W/m 17,0 C 24,4 C 9,4 km/h (2 Bft)
15.08.2017 19:00 26,5 C 20,6 C 55 % 81 % 1016,3 hPa 0,0 l/m 0,9 km/h (0 Bft) O-NO 0,00 h 0,0 UV-I 17 W/m 17,2 C 20,6 C 1,5 km/h (1 Bft)
15.08.2017 20:00 26,0 C 20,0 C 57 % 83 % 1016,5 hPa 0,0 l/m 0,5 km/h (0 Bft) S-SO 0,00 h 0,0 UV-I 16 W/m 17,0 C 20,0 C 1,6 km/h (1 Bft)
15.08.2017 21:00 25,8 C 19,7 C 57 % 82 % 1016,7 hPa 0,0 l/m 0,1 km/h (0 Bft) O-NO 0,00 h 0,0 UV-I 0 W/m 16,5 C 19,7 C 0,4 km/h (0 Bft)
15.08.2017 22:00 25,8 C 18,1 C 58 % 89 % 1016,8 hPa 0,0 l/m 0,0 km/h (0 Bft) N 0,00 h 0,0 UV-I 0 W/m 16,4 C 18,1 C 0,0 km/h (0 Bft)
15.08.2017 23:00 25,8 C 17,8 C 57 % 90 % 1017,8 hPa 0,0 l/m 4,6 km/h (1 Bft) W 0,00 h 0,0 UV-I 0 W/m 16,2 C 17,0 C 8,9 km/h (2 Bft)
16.08.2017 00:00 25,8 C 17,3 C 57 % 92 % 1018,5 hPa 4,8 l/m 0,2 km/h (0 Bft) W 0,00 h 0,0 UV-I 0 W/m 16,1 C 17,3 C 0,8 km/h (0 Bft)
16.08.2017 01:00 25,7 C 16,6 C 57 % 95 % 1017,7 hPa 0,0 l/m 0,1 km/h (0 Bft) O-NO 0,00 h 0,0 UV-I 0 W/m 15,8 C 16,6 C 0,2 km/h (0 Bft)
16.08.2017 02:00 25,6 C 16,4 C 58 % 96 % 1017,4 hPa 0,0 l/m 0,0 km/h (0 Bft) N 0,00 h 0,0 UV-I 0 W/m 15,7 C 16,4 C 0,0 km/h (0 Bft)
16.08.2017 03:00 25,5 C 16,2 C 58 % 96 % 1017,7 hPa 0,0 l/m 0,0 km/h (0 Bft) N 0,00 h 0,0 UV-I 0 W/m 15,6 C 16,2 C 0,0 km/h (0 Bft)
16.08.2017 04:00 25,4 C 16,0 C 58 % 96 % 1018,2 hPa 0,0 l/m 0,0 km/h (0 Bft) N 0,00 h 0,0 UV-I 0 W/m 15,4 C 16,0 C 0,0 km/h (0 Bft)
16.08.2017 05:00 25,4 C 15,9 C 58 % 96 % 1018,5 hPa 0,0 l/m 0,0 km/h (0 Bft) N 0,00 h 0,0 UV-I 0 W/m 15,3 C 15,9 C 0,0 km/h (0 Bft)
16.08.2017 06:00 25,4 C 16,0 C 58 % 96 % 1018,9 hPa 0,0 l/m 0,0 km/h (0 Bft) S-SW 0,00 h 0,0 UV-I 7 W/m 15,4 C 16,0 C 0,2 km/h (0 Bft)
16.08.2017 07:00 25,4 C 16,4 C 58 % 96 % 1019,5 hPa 0,8 l/m 0,1 km/h (0 Bft) S 0,00 h 0,0 UV-I 15 W/m 15,8 C 16,4 C 0,6 km/h (0 Bft)
16.08.2017 08:00 25,6 C 16,7 C 58 % 97 % 1019,8 hPa 1,4 l/m 0,5 km/h (0 Bft) SW 0,00 h 0,0 UV-I 21 W/m 16,2 C 16,7 C 1,8 km/h (1 Bft)
16.08.2017 09:00 25,9 C 16,9 C 58 % 96 % 1019,9 hPa 0,2 l/m 0,8 km/h (0 Bft) W-SW 0,00 h 0,7 UV-I 84 W/m 16,4 C 16,9 C 2,6 km/h (1 Bft)
16.08.2017 10:00 25,7 C 17,5 C 59 % 94 % 1020,1 hPa 0,0 l/m 2,8 km/h (1 Bft) SW 0,55 h 1,4 UV-I 168 W/m 16,5 C 17,4 C 5,9 km/h (2 Bft)
16.08.2017 11:00 25,8 C 18,8 C 59 % 89 % 1020,2 hPa 0,2 l/m 3,4 km/h (1 Bft) W 0,93 h 2,9 UV-I 410 W/m 16,9 C 18,6 C 7,3 km/h (2 Bft)
16.08.2017 12:00 25,8 C 20,4 C 58 % 81 % 1020,1 hPa 0,0 l/m 2,5 km/h (1 Bft) SW 1,00 h 4,0 UV-I 527 W/m 17,0 C 20,3 C 3,9 km/h (1 Bft)
16.08.2017 13:00 26,2 C 22,4 C 58 % 72 % 1020,2 hPa 0,0 l/m 2,4 km/h (1 Bft) N 1,00 h 5,2 UV-I 809 W/m 17,1 C 22,3 C 3,4 km/h (1 Bft)
16.08.2017 14:00 26,0 C 21,7 C 58 % 71 % 1020,1 hPa 0,0 l/m 1,5 km/h (1 Bft) N-NW 0,88 h 2,0 UV-I 202 W/m 16,3 C 21,7 C 2,8 km/h (1 Bft)
16.08.2017 15:00 25,8 C 21,6 C 57 % 71 % 1020,0 hPa 0,0 l/m 0,0 km/h (0 Bft) NW 0,62 h 1,7 UV-I 163 W/m 16,2 C 21,6 C 0,1 km/h (0 Bft)
16.08.2017 16:00 25,9 C 22,9 C 56 % 66 % 1019,6 hPa 0,0 l/m 0,0 km/h (0 Bft) N 0,82 h 2,6 UV-I 473 W/m 16,1 C 22,9 C 0,0 km/h (0 Bft)
16.08.2017 17:00 26,1 C 22,5 C 56 % 66 % 1019,6 hPa 0,0 l/m 0,0 km/h (0 Bft) N 0,45 h 1,2 UV-I 213 W/m 15,8 C 22,5 C 0,1 km/h (0 Bft)
16.08.2017 18:00 26,1 C 22,4 C 55 % 64 % 1019,6 hPa 0,0 l/m 0,2 km/h (0 Bft) S 0,30 h 0,7 UV-I 113 W/m 15,3 C 22,4 C 0,5 km/h (0 Bft)
16.08.2017 19:00 26,1 C 20,6 C 55 % 73 % 1019,9 hPa 0,0 l/m 0,3 km/h (0 Bft) N 0,00 h 0,0 UV-I 33 W/m 15,6 C 20,6 C 0,4 km/h (0 Bft)
16.08.2017 20:00 26,0 C 19,8 C 55 % 77 % 1020,3 hPa 0,0 l/m 0,0 km/h (0 Bft) N 0,00 h 0,0 UV-I 10 W/m 15,6 C 19,8 C 0,0 km/h (0 Bft)
16.08.2017 21:00 26,1 C 17,8 C 56 % 86 % 1020,5 hPa 0,0 l/m 0,0 km/h (0 Bft) N 0,00 h 0,0 UV-I 0 W/m 15,5 C 17,8 C 0,0 km/h (0 Bft)
16.08.2017 22:00 26,1 C 17,0 C 56 % 88 % 1020,4 hPa 0,0 l/m 0,0 km/h (0 Bft) N 0,00 h 0,0 UV-I 0 W/m 15,0 C 17,0 C 0,0 km/h (0 Bft)
16.08.2017 23:00 26,2 C 16,0 C 56 % 90 % 1020,4 hPa 0,0 l/m 0,0 km/h (0 Bft) N 0,00 h 0,0 UV-I 0 W/m 14,3 C 16,0 C 0,0 km/h (0 Bft)
17.08.2017 00:00 26,0 C 15,3 C 56 % 91 % 1020,4 hPa 0,0 l/m 0,0 km/h (0 Bft) N 0,00 h 0,0 UV-I 0 W/m 13,7 C 15,3 C 0,0 km/h (0 Bft)
17.08.2017 01:00 25,7 C 14,5 C 56 % 92 % 1020,1 hPa 0,0 l/m 0,0 km/h (0 Bft) N 0,00 h 0,0 UV-I 0 W/m 13,2 C 14,5 C 0,0 km/h (0 Bft)
17.08.2017 02:00 25,6 C 14,1 C 56 % 93 % 1019,9 hPa 0,0 l/m 0,0 km/h (0 Bft) N 0,00 h 0,0 UV-I 0 W/m 12,9 C 14,1 C 0,2 km/h (0 Bft)
17.08.2017 03:00 25,5 C 13,7 C 56 % 93 % 1019,7 hPa 0,0 l/m 0,0 km/h (0 Bft) N 0,00 h 0,0 UV-I 0 W/m 12,6 C 13,7 C 0,0 km/h (0 Bft)
17.08.2017 04:00 25,4 C 13,3 C 56 % 94 % 1019,3 hPa 0,0 l/m 0,0 km/h (0 Bft) N 0,00 h 0,0 UV-I 0 W/m 12,4 C 13,3 C 0,0 km/h (0 Bft)
17.08.2017 05:00 25,3 C 12,8 C 56 % 94 % 1019,3 hPa 0,0 l/m 0,0 km/h (0 Bft) N 0,00 h 0,0 UV-I 0 W/m 11,8 C 12,8 C 0,0 km/h (0 Bft)
17.08.2017 06:00 25,3 C 12,6 C 56 % 94 % 1019,2 hPa 0,0 l/m 0,0 km/h (0 Bft) N 0,00 h 0,0 UV-I 23 W/m 11,7 C 12,6 C 0,0 km/h (0 Bft)
17.08.2017 07:00 25,5 C 14,1 C 55 % 95 % 1019,2 hPa 0,0 l/m 0,0 km/h (0 Bft) N 0,08 h 0,5 UV-I 92 W/m 13,4 C 14,1 C 0,0 km/h (0 Bft)
17.08.2017 08:00 25,7 C 17,4 C 56 % 92 % 1019,1 hPa 0,0 l/m 0,0 km/h (0 Bft) N 0,55 h 0,8 UV-I 163 W/m 16,1 C 17,4 C 0,0 km/h (0 Bft)
17.08.2017 09:00 26,2 C 19,7 C 56 % 83 % 1019,1 hPa 0,0 l/m 0,0 km/h (0 Bft) N 0,73 h 1,6 UV-I 353 W/m 16,8 C 19,7 C 0,0 km/h (0 Bft)
17.08.2017 10:00 26,6 C 22,1 C 56 % 76 % 1019,0 hPa 0,0 l/m 0,4 km/h (0 Bft) N 1,00 h 3,0 UV-I 554 W/m 17,7 C 22,1 C 0,2 km/h (0 Bft)
17.08.2017 11:00 27,4 C 23,0 C 53 % 68 % 1018,7 hPa 0,0 l/m 4,4 km/h (1 Bft) N 0,98 h 3,8 UV-I 470 W/m 16,9 C 22,8 C 4,6 km/h (1 Bft)
17.08.2017 12:00 24,7 C 24,5 C 58 % 63 % 1017,9 hPa 0,0 l/m 8,4 km/h (2 Bft) S-SO 1,02 h 5,5 UV-I 704 W/m 16,9 C 23,9 C 12,9 km/h (3 Bft)
17.08.2017 13:00 24,8 C 25,2 C 60 % 62 % 1017,4 hPa 0,0 l/m 8,3 km/h (2 Bft) S-SO 1,00 h 5,3 UV-I 718 W/m 17,3 C 24,6 C 12,4 km/h (3 Bft)
17.08.2017 14:00 25,0 C 25,6 C 59 % 60 % 1017,1 hPa 0,0 l/m 3,6 km/h (1 Bft) N 1,00 h 4,0 UV-I 502 W/m 17,3 C 25,5 C 5,2 km/h (1 Bft)
17.08.2017 15:00 25,1 C 24,9 C 59 % 62 % 1016,7 hPa 0,0 l/m 5,2 km/h (1 Bft) N 1,00 h 2,2 UV-I 277 W/m 17,0 C 24,7 C 3,8 km/h (1 Bft)
17.08.2017 16:00 25,0 C 24,8 C 59 % 63 % 1016,4 hPa 0,0 l/m 3,7 km/h (1 Bft) N 0,90 h 1,6 UV-I 214 W/m 17,1 C 24,7 C 0,1 km/h (0 Bft)
17.08.2017 17:00 24,8 C 24,5 C 60 % 67 % 1016,3 hPa 0,0 l/m 2,5 km/h (1 Bft) N 0,43 h 1,1 UV-I 157 W/m 17,9 C 24,5 C 2,1 km/h (1 Bft)
17.08.2017 18:00 24,8 C 24,7 C 61 % 66 % 1016,1 hPa 0,0 l/m 1,3 km/h (1 Bft) S 0,20 h 0,6 UV-I 113 W/m 17,7 C 24,7 C 2,6 km/h (1 Bft)
17.08.2017 19:00 25,2 C 23,7 C 60 % 66 % 1016,1 hPa 0,0 l/m 0,0 km/h (0 Bft) N 0,00 h 0,0 UV-I 33 W/m 16,8 C 23,7 C 0,0 km/h (0 Bft)
17.08.2017 20:00 24,8 C 22,2 C 61 % 72 % 1016,4 hPa 0,0 l/m 0,0 km/h (0 Bft) N 0,00 h 0,0 UV-I 8 W/m 17,0 C 22,2 C 0,2 km/h (0 Bft)
17.08.2017 21:00 24,4 C 20,7 C 62 % 80 % 1016,6 hPa 0,0 l/m 0,0 km/h (0 Bft) N 0,00 h 0,0 UV-I 0 W/m 17,2 C 20,7 C 0,0 km/h (0 Bft)
17.08.2017 22:00 24,2 C 19,5 C 63 % 86 % 1016,5 hPa 0,0 l/m 0,0 km/h (0 Bft) N 0,00 h 0,0 UV-I 0 W/m 17,0 C 19,5 C 0,0 km/h (0 Bft)
17.08.2017 23:00 24,1 C 18,0 C 64 % 91 % 1016,7 hPa 0,0 l/m 0,0 km/h (0 Bft) N 0,00 h 0,0 UV-I 0 W/m 16,5 C 18,0 C 0,0 km/h (0 Bft)
18.08.2017 00:00 24,3 C 17,2 C 65 % 93 % 1017,2 hPa 0,0 l/m 0,0 km/h (0 Bft) N 0,00 h 0,0 UV-I 0 W/m 15,9 C 17,2 C 0,0 km/h (0 Bft)
18.08.2017 01:00 24,5 C 16,3 C 66 % 94 % 1017,2 hPa 0,0 l/m 0,0 km/h (0 Bft) N 0,00 h 0,0 UV-I 0 W/m 15,4 C 16,3 C 0,0 km/h (0 Bft)
18.08.2017 02:00 24,4 C 15,9 C 66 % 94 % 1016,9 hPa 0,0 l/m 0,0 km/h (0 Bft) N 0,00 h 0,0 UV-I 0 W/m 14,9 C 15,9 C 0,0 km/h (0 Bft)
18.08.2017 03:00 24,4 C 15,7 C 66 % 95 % 1016,6 hPa 0,0 l/m 0,0 km/h (0 Bft) N 0,00 h 0,0 UV-I 0 W/m 14,9 C 15,7 C 0,0 km/h (0 Bft)
18.08.2017 04:00 24,4 C 15,4 C 65 % 95 % 1016,1 hPa 0,0 l/m 0,0 km/h (0 Bft) N 0,00 h 0,0 UV-I 0 W/m 14,5 C 15,4 C 0,0 km/h (0 Bft)
18.08.2017 05:00 24,4 C 15,0 C 64 % 95 % 1016,3 hPa 0,0 l/m 0,0 km/h (0 Bft) N 0,00 h 0,0 UV-I 0 W/m 14,1 C 15,0 C 0,0 km/h (0 Bft)
18.08.2017 06:00 24,3 C 14,6 C 64 % 95 % 1016,3 hPa 0,0 l/m 0,0 km/h (0 Bft) N 0,00 h 0,0 UV-I 12 W/m 13,8 C 14,6 C 0,0 km/h (0 Bft)
18.08.2017 07:00 24,2 C 15,3 C 64 % 95 % 1016,3 hPa 0,0 l/m 0,0 km/h (0 Bft) N 0,25 h 0,5 UV-I 105 W/m 14,5 C 15,3 C 0,0 km/h (0 Bft)
18.08.2017 08:00 24,1 C 18,9 C 64 % 87 % 1015,8 hPa 0,0 l/m 0,0 km/h (0 Bft) N 1,00 h 1,1 UV-I 332 W/m 16,7 C 18,9 C 0,0 km/h (0 Bft)
18.08.2017 09:00 24,0 C 22,5 C 64 % 77 % 1015,7 hPa 0,0 l/m 0,0 km/h (0 Bft) N 1,00 h 2,0 UV-I 459 W/m 18,2 C 22,5 C 0,1 km/h (0 Bft)
18.08.2017 10:00 24,5 C 24,2 C 63 % 68 % 1015,2 hPa 0,0 l/m 6,1 km/h (2 Bft) S 0,93 h 2,6 UV-I 389 W/m 17,8 C 23,9 C 10,4 km/h (2 Bft)
18.08.2017 11:00 24,8 C 25,2 C 61 % 63 % 1014,9 hPa 0,0 l/m 9,4 km/h (2 Bft) S 1,00 h 3,9 UV-I 581 W/m 17,8 C 24,5 C 15,1 km/h (3 Bft)
18.08.2017 12:00 25,0 C 25,2 C 62 % 65 % 1014,2 hPa 0,0 l/m 8,0 km/h (2 Bft) S 1,00 h 3,5 UV-I 383 W/m 18,1 C 24,7 C 13,7 km/h (3 Bft)
18.08.2017 13:00 25,0 C 26,2 C 62 % 61 % 1013,5 hPa 0,0 l/m 6,7 km/h (2 Bft) S 1,00 h 4,3 UV-I 548 W/m 18,0 C 25,9 C 12,6 km/h (3 Bft)
18.08.2017 14:00 25,0 C 26,6 C 62 % 61 % 1012,9 hPa 0,0 l/m 6,8 km/h (2 Bft) S 1,00 h 3,3 UV-I 380 W/m 18,4 C 26,4 C 13,6 km/h (3 Bft)
18.08.2017 15:00 25,2 C 26,6 C 62 % 61 % 1012,3 hPa 0,0 l/m 5,4 km/h (1 Bft) S 0,90 h 2,9 UV-I 357 W/m 18,5 C 26,4 C 11,0 km/h (2 Bft)
18.08.2017 16:00 25,3 C 26,8 C 63 % 62 % 1011,3 hPa 0,0 l/m 3,7 km/h (1 Bft) S 0,52 h 1,8 UV-I 265 W/m 18,9 C 26,7 C 7,5 km/h (2 Bft)
18.08.2017 17:00 25,4 C 26,6 C 63 % 63 % 1010,1 hPa 0,0 l/m 5,4 km/h (1 Bft) S-SO 0,37 h 1,1 UV-I 197 W/m 18,9 C 26,4 C 10,7 km/h (2 Bft)
18.08.2017 18:00 25,3 C 25,7 C 64 % 66 % 1009,1 hPa 0,0 l/m 0,8 km/h (0 Bft) SO 0,00 h 0,5 UV-I 43 W/m 18,8 C 25,7 C 2,5 km/h (1 Bft)
18.08.2017 19:00 25,3 C 24,3 C 66 % 73 % 1008,5 hPa 0,2 l/m 0,7 km/h (0 Bft) SO 0,00 h 0,0 UV-I 6 W/m 19,1 C 24,3 C 2,0 km/h (1 Bft)
18.08.2017 20:00 25,3 C 21,5 C 67 % 86 % 1009,8 hPa 1,6 l/m 10,3 km/h (2 Bft) W-SW 0,00 h 0,0 UV-I 0 W/m 19,0 C 20,1 C 19,4 km/h (3 Bft)
18.08.2017 21:00 25,1 C 19,3 C 67 % 94 % 1011,8 hPa 0,0 l/m 5,8 km/h (2 Bft) W 0,00 h 0,0 UV-I 0 W/m 18,3 C 18,9 C 13,4 km/h (3 Bft)
18.08.2017 22:00 24,9 C 17,8 C 67 % 93 % 1012,7 hPa 1,8 l/m 0,6 km/h (0 Bft) W 0,00 h 0,0 UV-I 0 W/m 16,7 C 17,8 C 2,0 km/h (1 Bft)
18.08.2017 23:00 24,8 C 17,1 C 67 % 95 % 1012,8 hPa 2,2 l/m 0,0 km/h (0 Bft) SW 0,00 h 0,0 UV-I 0 W/m 16,3 C 17,1 C 0,3 km/h (0 Bft)
19.08.2017 00:00 24,9 C 16,6 C 68 % 95 % 1013,6 hPa 0,0 l/m 3,0 km/h (1 Bft) SW 0,00 h 0,0 UV-I 0 W/m 15,8 C 16,5 C 8,0 km/h (2 Bft)
19.08.2017 01:00 24,9 C 15,9 C 68 % 94 % 1014,1 hPa 0,0 l/m 3,4 km/h (1 Bft) W-SW 0,00 h 0,0 UV-I 0 W/m 14,9 C 15,8 C 9,9 km/h (2 Bft)
19.08.2017 02:00 24,8 C 15,2 C 67 % 94 % 1014,4 hPa 0,0 l/m 5,6 km/h (1 Bft) W-SW 0,00 h 0,0 UV-I 0 W/m 14,2 C 14,7 C 12,3 km/h (3 Bft)
19.08.2017 03:00 24,9 C 14,9 C 68 % 93 % 1014,4 hPa 0,0 l/m 0,7 km/h (0 Bft) W-SW 0,00 h 0,0 UV-I 0 W/m 13,8 C 14,9 C 2,5 km/h (1 Bft)
19.08.2017 04:00 24,9 C 14,4 C 67 % 93 % 1014,7 hPa 0,0 l/m 0,9 km/h (0 Bft) W-SW 0,00 h 0,0 UV-I 0 W/m 13,3 C 14,4 C 4,1 km/h (1 Bft)
19.08.2017 05:00 24,9 C 14,4 C 66 % 93 % 1014,7 hPa 0,0 l/m 0,2 km/h (0 Bft) W-SW 0,00 h 0,0 UV-I 0 W/m 13,3 C 14,4 C 0,7 km/h (0 Bft)
19.08.2017 06:00 24,8 C 14,4 C 65 % 94 % 1015,1 hPa 0,0 l/m 0,0 km/h (0 Bft) N 0,00 h 0,0 UV-I 9 W/m 13,4 C 14,4 C 0,1 km/h (0 Bft)
19.08.2017 07:00 24,6 C 14,5 C 67 % 95 % 1015,8 hPa 0,0 l/m 0,7 km/h (0 Bft) S-SW 0,00 h 0,0 UV-I 34 W/m 13,7 C 14,5 C 2,7 km/h (1 Bft)
19.08.2017 08:00 24,5 C 14,9 C 67 % 94 % 1016,2 hPa 0,0 l/m 0,8 km/h (0 Bft) SW 0,00 h 0,6 UV-I 89 W/m 14,0 C 14,9 C 2,9 km/h (1 Bft)
19.08.2017 09:00 23,9 C 15,9 C 63 % 89 % 1016,5 hPa 0,0 l/m 2,4 km/h (1 Bft) W-SW 0,75 h 1,2 UV-I 238 W/m 14,2 C 15,8 C 6,3 km/h (2 Bft)
19.08.2017 10:00 23,9 C 16,9 C 59 % 78 % 1017,3 hPa 0,0 l/m 7,3 km/h (2 Bft) W-SW 0,83 h 2,0 UV-I 338 W/m 13,1 C 16,1 C 14,5 km/h (3 Bft)
19.08.2017 11:00 23,5 C 16,1 C 58 % 79 % 1017,4 hPa 0,0 l/m 3,9 km/h (1 Bft) SW 0,73 h 1,8 UV-I 218 W/m 12,4 C 15,9 C 9,7 km/h (2 Bft)
19.08.2017 12:00 23,9 C 17,5 C 56 % 73 % 1017,5 hPa 0,0 l/m 5,0 km/h (1 Bft) W-SW 1,00 h 3,8 UV-I 541 W/m 12,7 C 17,2 C 10,8 km/h (2 Bft)
19.08.2017 13:00 23,9 C 19,2 C 55 % 62 % 1017,8 hPa 0,0 l/m 6,6 km/h (2 Bft) W-SW 1,00 h 5,2 UV-I 824 W/m 11,6 C 18,6 C 13,4 km/h (3 Bft)
19.08.2017 14:00 23,8 C 19,8 C 52 % 58 % 1017,8 hPa 0,0 l/m 5,5 km/h (1 Bft) W 1,00 h 3,8 UV-I 562 W/m 11,2 C 19,6 C 12,0 km/h (2 Bft)
19.08.2017 15:00 23,7 C 19,6 C 52 % 57 % 1017,7 hPa 0,0 l/m 6,8 km/h (2 Bft) W-SW 1,00 h 3,6 UV-I 601 W/m 11,0 C 19,1 C 14,6 km/h (3 Bft)
19.08.2017 16:00 23,4 C 19,8 C 50 % 55 % 1017,6 hPa 0,0 l/m 5,4 km/h (1 Bft) W-SW 0,70 h 2,2 UV-I 431 W/m 10,5 C 19,4 C 12,2 km/h (2 Bft)
19.08.2017 17:00 23,5 C 19,5 C 50 % 55 % 1018,1 hPa 0,0 l/m 5,3 km/h (1 Bft) W-SW 0,78 h 1,3 UV-I 388 W/m 10,2 C 19,2 C 11,4 km/h (2 Bft)
19.08.2017 18:00 23,2 C 18,7 C 48 % 56 % 1018,1 hPa 0,0 l/m 3,0 km/h (1 Bft) W-SW 0,20 h 0,7 UV-I 107 W/m 9,8 C 18,6 C 8,2 km/h (2 Bft)
19.08.2017 19:00 23,5 C 17,5 C 52 % 60 % 1018,1 hPa 0,0 l/m 2,5 km/h (1 Bft) W 0,00 h 0,0 UV-I 21 W/m 9,7 C 17,5 C 7,8 km/h (2 Bft)
19.08.2017 20:00 23,7 C 16,1 C 53 % 68 % 1019,1 hPa 0,0 l/m 0,0 km/h (0 Bft) W-SW 0,00 h 0,0 UV-I 8 W/m 10,1 C 16,1 C 0,1 km/h (0 Bft)
19.08.2017 21:00 23,8 C 13,9 C 53 % 79 % 1019,5 hPa 0,0 l/m 0,0 km/h (0 Bft) N 0,00 h 0,0 UV-I 0 W/m 10,3 C 13,9 C 0,0 km/h (0 Bft)
19.08.2017 22:00 23,8 C 12,5 C 55 % 87 % 1019,6 hPa 0,0 l/m 0,0 km/h (0 Bft) N 0,00 h 0,0 UV-I 0 W/m 10,4 C 12,5 C 0,0 km/h (0 Bft)
19.08.2017 23:00 23,7 C 11,2 C 55 % 90 % 1019,8 hPa 0,0 l/m 0,0 km/h (0 Bft) N 0,00 h 0,0 UV-I 0 W/m 9,6 C 11,2 C 0,0 km/h (0 Bft)
20.08.2017 00:00 23,8 C 10,6 C 56 % 91 % 1020,1 hPa 0,0 l/m 0,0 km/h (0 Bft) N 0,00 h 0,0 UV-I 0 W/m 9,2 C 10,6 C 0,0 km/h (0 Bft)
20.08.2017 01:00 23,9 C 10,0 C 57 % 91 % 1019,9 hPa 0,0 l/m 0,0 km/h (0 Bft) N 0,00 h 0,0 UV-I 0 W/m 8,6 C 10,0 C 0,0 km/h (0 Bft)
20.08.2017 02:00 23,8 C 9,3 C 56 % 91 % 1020,0 hPa 0,0 l/m 0,0 km/h (0 Bft) N 0,00 h 0,0 UV-I 0 W/m 7,9 C 9,3 C 0,0 km/h (0 Bft)
20.08.2017 03:00 23,8 C 8,7 C 56 % 92 % 1020,1 hPa 0,0 l/m 0,0 km/h (0 Bft) N 0,00 h 0,0 UV-I 0 W/m 7,5 C 8,7 C 0,0 km/h (0 Bft)
20.08.2017 04:00 23,7 C 8,3 C 55 % 93 % 1020,4 hPa 0,0 l/m 0,0 km/h (0 Bft) N 0,00 h 0,0 UV-I 0 W/m 7,1 C 8,3 C 0,0 km/h (0 Bft)
20.08.2017 05:00 23,7 C 8,1 C 54 % 94 % 1020,7 hPa 0,0 l/m 0,0 km/h (0 Bft) N 0,00 h 0,0 UV-I 0 W/m 7,1 C 8,1 C 0,0 km/h (0 Bft)
20.08.2017 06:00 23,5 C 8,4 C 54 % 94 % 1020,8 hPa 0,0 l/m 0,0 km/h (0 Bft) N 0,00 h 0,0 UV-I 10 W/m 7,5 C 8,4 C 0,0 km/h (0 Bft)
20.08.2017 07:00 23,6 C 9,3 C 54 % 94 % 1021,2 hPa 0,0 l/m 0,0 km/h (0 Bft) N 0,52 h 0,6 UV-I 143 W/m 8,3 C 9,3 C 0,0 km/h (0 Bft)
20.08.2017 08:00 23,6 C 12,5 C 56 % 87 % 1021,6 hPa 0,0 l/m 0,0 km/h (0 Bft) N 0,97 h 1,0 UV-I 342 W/m 10,5 C 12,5 C 0,0 km/h (0 Bft)
20.08.2017 09:00 23,6 C 15,0 C 57 % 79 % 1021,9 hPa 0,0 l/m 0,6 km/h (0 Bft) W-SW 1,00 h 1,9 UV-I 531 W/m 11,5 C 15,0 C 1,5 km/h (1 Bft)
20.08.2017 10:00 23,6 C 16,9 C 57 % 72 % 1021,9 hPa 0,0 l/m 2,9 km/h (1 Bft) W-SW 0,95 h 2,9 UV-I 608 W/m 11,9 C 16,8 C 6,5 km/h (2 Bft)
20.08.2017 11:00 23,3 C 17,5 C 52 % 65 % 1021,9 hPa 0,0 l/m 5,8 km/h (2 Bft) W-SW 0,90 h 3,3 UV-I 455 W/m 10,8 C 16,9 C 11,2 km/h (2 Bft)
20.08.2017 12:00 23,4 C 18,7 C 50 % 53 % 1021,7 hPa 0,0 l/m 7,7 km/h (2 Bft) W-SW 0,92 h 4,2 UV-I 679 W/m 8,9 C 17,9 C 15,2 km/h (3 Bft)
20.08.2017 13:00 23,7 C 18,0 C 49 % 56 % 1021,7 hPa 0,0 l/m 7,5 km/h (2 Bft) W-SW 1,00 h 3,6 UV-I 566 W/m 9,0 C 17,1 C 15,8 km/h (3 Bft)
20.08.2017 14:00 23,6 C 17,7 C 50 % 55 % 1021,9 hPa 0,0 l/m 5,9 km/h (2 Bft) W-SW 1,00 h 3,4 UV-I 435 W/m 8,6 C 17,2 C 12,5 km/h (3 Bft)
20.08.2017 15:00 23,5 C 17,9 C 51 % 57 % 1021,8 hPa 0,0 l/m 5,0 km/h (1 Bft) W 0,85 h 2,1 UV-I 308 W/m 9,2 C 17,7 C 11,7 km/h (2 Bft)
20.08.2017 16:00 23,4 C 18,2 C 51 % 55 % 1021,9 hPa 0,0 l/m 6,7 km/h (2 Bft) W 0,63 h 1,7 UV-I 280 W/m 8,9 C 17,6 C 14,4 km/h (3 Bft)
20.08.2017 17:00 23,4 C 17,3 C 52 % 58 % 1022,1 hPa 0,0 l/m 2,8 km/h (1 Bft) W-NW 0,77 h 1,1 UV-I 207 W/m 9,0 C 17,2 C 6,7 km/h (2 Bft)
20.08.2017 18:00 23,3 C 17,0 C 53 % 62 % 1021,9 hPa 0,0 l/m 1,5 km/h (1 Bft) W-NW 0,03 h 0,5 UV-I 88 W/m 9,6 C 16,9 C 4,1 km/h (1 Bft)
20.08.2017 19:00 23,4 C 16,3 C 54 % 60 % 1022,1 hPa 0,0 l/m 2,1 km/h (1 Bft) W 0,00 h 0,0 UV-I 28 W/m 8,5 C 16,2 C 5,7 km/h (1 Bft)
20.08.2017 20:00 23,9 C 14,8 C 52 % 68 % 1022,5 hPa 0,0 l/m 0,7 km/h (0 Bft) W-NW 0,00 h 0,0 UV-I 6 W/m 9,0 C 14,8 C 2,4 km/h (1 Bft)
20.08.2017 21:00 23,8 C 13,6 C 52 % 74 % 1023,0 hPa 0,0 l/m 0,0 km/h (0 Bft) N 0,00 h 0,0 UV-I 0 W/m 9,1 C 13,6 C 0,1 km/h (0 Bft)
20.08.2017 22:00 23,7 C 12,1 C 53 % 80 % 1023,1 hPa 0,0 l/m 0,0 km/h (0 Bft) N-NO 0,00 h 0,0 UV-I 0 W/m 8,8 C 12,1 C 0,2 km/h (0 Bft)
20.08.2017 23:00 23,8 C 11,3 C 56 % 85 % 1023,3 hPa 0,0 l/m 0,0 km/h (0 Bft) N 0,00 h 0,0 UV-I 0 W/m 8,8 C 11,3 C 0,0 km/h (0 Bft)
Min-Datum _ 20.08.17 14.08.17 20.08.17 14.08.17 18.08.17 - 14.08.17 - - - - 20.08.17 20.08.17 14.08.17
_ Min-Zeit 11:35 14:29 12:04 18:18 20:04 - 00:00 - - - - 05:14 05:14 00:00
Minimum _ 22,9 C 0,0 C 46 % 44 % 1007,9 hPa - 0,0 km/h (0 Bft) - - - - 6,9 C 8,0 C 0,0 km/h (0 Bft)
Max-Datum _ 17.08.17 15.08.17 19.08.17 14.08.17 20.08.17 16.08.17 15.08.17 - 17.08.17 18.08.17 16.08.17 18.08.17 15.08.17 15.08.17
_ Max-Zeit 11:19 15:47 00:16 07:25 23:06 00:27 23:51 - 08:51 13:40 13:15 15:43 15:48 23:51
Maximum _ 28,4 C 28,4 C 69 % 97 % 1023,4 hPa 4,8 l/m 30,6 km/h
W (5 Bft)
- 0,13 h 6,9 UV-I 1090 W/m 20,0 C 28,4 C 41,8 km/h
W (6 Bft)
Durchschnitt _ 25,0 C 18,2 C 57 % 77 % 1018,4 hPa #13,2 l/m 2,0 km/h (1 Bft) N #61:49 h 2,5 UV-I 314 W/m 13,8 C 18,0 C 3,6 km/h (1 Bft)